sensor_id;sensor_type;location;lat;lon;timestamp;pressure;altitude;pressure_sealevel;temperature;humidity
56400;BME280;42298;53.638;9.876;2022-12-18T00:02:11;102709.31;;;-2.51;65.21
56400;BME280;42298;53.638;9.876;2022-12-18T00:04:37;102707.31;;;-2.57;65.47
56400;BME280;42298;53.638;9.876;2022-12-18T00:07:03;102712.28;;;-2.69;63.76
56400;BME280;42298;53.638;9.876;2022-12-18T00:09:29;102714.09;;;-2.69;63.75
56400;BME280;42298;53.638;9.876;2022-12-18T00:11:54;102712.47;;;-2.78;64.08
56400;BME280;42298;53.638;9.876;2022-12-18T00:14:21;102700.03;;;-2.87;64.36
56400;BME280;42298;53.638;9.876;2022-12-18T00:16:47;102711.00;;;-2.89;64.96
56400;BME280;42298;53.638;9.876;2022-12-18T00:19:14;102716.59;;;-2.98;64.52
56400;BME280;42298;53.638;9.876;2022-12-18T00:21:49;102708.19;;;-3.03;64.40
56400;BME280;42298;53.638;9.876;2022-12-18T00:24:15;102714.41;;;-3.03;65.55
56400;BME280;42298;53.638;9.876;2022-12-18T00:26:40;102729.91;;;-2.97;65.04
56400;BME280;42298;53.638;9.876;2022-12-18T00:29:15;102743.66;;;-2.84;65.06
56400;BME280;42298;53.638;9.876;2022-12-18T00:31:44;102740.16;;;-2.92;65.29
56400;BME280;42298;53.638;9.876;2022-12-18T00:34:13;102748.53;;;-2.79;64.31
56400;BME280;42298;53.638;9.876;2022-12-18T00:36:39;102752.44;;;-2.82;63.43
56400;BME280;42298;53.638;9.876;2022-12-18T00:39:05;102732.56;;;-2.89;63.49
56400;BME280;42298;53.638;9.876;2022-12-18T00:41:32;102731.72;;;-2.89;64.70
56400;BME280;42298;53.638;9.876;2022-12-18T00:44:18;102716.59;;;-2.98;63.53
56400;BME280;42298;53.638;9.876;2022-12-18T00:46:46;102737.28;;;-2.91;64.43
56400;BME280;42298;53.638;9.876;2022-12-18T00:49:15;102733.91;;;-2.93;64.96
56400;BME280;42298;53.638;9.876;2022-12-18T00:51:43;102726.19;;;-3.04;65.61
56400;BME280;42298;53.638;9.876;2022-12-18T00:54:11;102739.31;;;-3.01;65.26
56400;BME280;42298;53.638;9.876;2022-12-18T00:56:37;102733.94;;;-3.01;65.68
56400;BME280;42298;53.638;9.876;2022-12-18T00:59:03;102748.78;;;-3.05;65.08
56400;BME280;42298;53.638;9.876;2022-12-18T01:01:29;102748.66;;;-3.11;63.86
56400;BME280;42298;53.638;9.876;2022-12-18T01:03:57;102740.38;;;-3.10;63.84
56400;BME280;42298;53.638;9.876;2022-12-18T01:06:22;102740.41;;;-3.26;62.64
56400;BME280;42298;53.638;9.876;2022-12-18T01:08:48;102734.34;;;-3.28;62.47
56400;BME280;42298;53.638;9.876;2022-12-18T01:11:16;102733.84;;;-3.39;63.10
56400;BME280;42298;53.638;9.876;2022-12-18T01:13:42;102724.94;;;-3.48;65.96
56400;BME280;42298;53.638;9.876;2022-12-18T01:16:08;102743.47;;;-3.37;65.22
56400;BME280;42298;53.638;9.876;2022-12-18T01:18:35;102722.25;;;-3.40;65.87
56400;BME280;42298;53.638;9.876;2022-12-18T01:21:00;102725.59;;;-3.38;64.96
56400;BME280;42298;53.638;9.876;2022-12-18T01:23:26;102723.75;;;-3.37;64.65
56400;BME280;42298;53.638;9.876;2022-12-18T01:25:55;102725.59;;;-3.38;64.81
56400;BME280;42298;53.638;9.876;2022-12-18T01:28:21;102726.28;;;-3.44;63.29
56400;BME280;42298;53.638;9.876;2022-12-18T01:30:47;102719.72;;;-3.57;63.69
56400;BME280;42298;53.638;9.876;2022-12-18T01:33:12;102727.63;;;-3.56;63.36
56400;BME280;42298;53.638;9.876;2022-12-18T01:35:42;102739.44;;;-3.49;64.03
56400;BME280;42298;53.638;9.876;2022-12-18T01:38:08;102739.59;;;-3.58;63.58
56400;BME280;42298;53.638;9.876;2022-12-18T01:40:33;102743.63;;;-3.54;64.69
56400;BME280;42298;53.638;9.876;2022-12-18T01:42:59;102752.91;;;-3.49;63.05
56400;BME280;42298;53.638;9.876;2022-12-18T01:45:27;102737.25;;;-3.53;64.72
56400;BME280;42298;53.638;9.876;2022-12-18T01:48:06;102752.56;;;-3.54;64.18
56400;BME280;42298;53.638;9.876;2022-12-18T01:50:36;102742.47;;;-3.60;64.87
56400;BME280;42298;53.638;9.876;2022-12-18T01:55:53;102762.13;;;-3.51;65.96
56400;BME280;42298;53.638;9.876;2022-12-18T01:58:24;102756.75;;;-3.51;66.75
56400;BME280;42298;53.638;9.876;2022-12-18T02:00:54;102760.63;;;-3.46;66.03
56400;BME280;42298;53.638;9.876;2022-12-18T02:03:20;102752.38;;;-3.44;65.60
56400;BME280;42298;53.638;9.876;2022-12-18T02:05:50;102755.41;;;-3.39;65.54
56400;BME280;42298;53.638;9.876;2022-12-18T02:08:28;102759.63;;;-3.37;65.74
56400;BME280;42298;53.638;9.876;2022-12-18T02:13:48;102767.34;;;-3.50;63.13
56400;BME280;42298;53.638;9.876;2022-12-18T02:16:46;102783.03;;;-3.53;62.04
56400;BME280;42298;53.638;9.876;2022-12-18T02:20:01;102775.09;;;-3.71;62.77
56400;BME280;42298;53.638;9.876;2022-12-18T02:28:00;102792.59;;;-3.67;64.60
56400;BME280;42298;53.638;9.876;2022-12-18T02:30:29;102789.59;;;-3.64;63.51
56400;BME280;42298;53.638;9.876;2022-12-18T02:32:56;102788.22;;;-3.68;64.76
56400;BME280;42298;53.638;9.876;2022-12-18T02:35:25;102771.56;;;-3.71;64.02
56400;BME280;42298;53.638;9.876;2022-12-18T02:37:57;102785.34;;;-3.66;64.77
56400;BME280;42298;53.638;9.876;2022-12-18T02:40:24;102793.25;;;-3.65;64.92
56400;BME280;42298;53.638;9.876;2022-12-18T02:42:51;102773.56;;;-3.73;65.28
56400;BME280;42298;53.638;9.876;2022-12-18T02:45:16;102780.13;;;-3.68;66.31
56400;BME280;42298;53.638;9.876;2022-12-18T02:47:48;102783.19;;;-3.63;66.19
56400;BME280;42298;53.638;9.876;2022-12-18T02:50:33;102790.09;;;-3.52;66.48
56400;BME280;42298;53.638;9.876;2022-12-18T02:53:09;102786.19;;;-3.50;66.01
56400;BME280;42298;53.638;9.876;2022-12-18T02:56:05;102795.97;;;-3.57;64.27
56400;BME280;42298;53.638;9.876;2022-12-18T03:01:12;102774.09;;;-3.70;64.25
56400;BME280;42298;53.638;9.876;2022-12-18T03:03:55;102789.91;;;-3.75;65.05
56400;BME280;42298;53.638;9.876;2022-12-18T03:06:26;102794.25;;;-3.90;64.98
56400;BME280;42298;53.638;9.876;2022-12-18T03:08:58;102794.94;;;-3.88;64.85
56400;BME280;42298;53.638;9.876;2022-12-18T03:11:25;102793.91;;;-3.87;63.60
56400;BME280;42298;53.638;9.876;2022-12-18T03:14:13;102787.84;;;-3.89;63.23
56400;BME280;42298;53.638;9.876;2022-12-18T03:16:43;102783.44;;;-3.98;63.57
56400;BME280;42298;53.638;9.876;2022-12-18T03:19:19;102786.16;;;-3.98;62.83
56400;BME280;42298;53.638;9.876;2022-12-18T03:21:49;102795.22;;;-3.99;63.71
56400;BME280;42298;53.638;9.876;2022-12-18T03:24:18;102793.38;;;-4.07;63.76
56400;BME280;42298;53.638;9.876;2022-12-18T03:26:47;102800.09;;;-4.03;62.70
56400;BME280;42298;53.638;9.876;2022-12-18T03:29:36;102801.28;;;-4.05;62.66
56400;BME280;42298;53.638;9.876;2022-12-18T03:32:14;102797.25;;;-4.01;63.99
56400;BME280;42298;53.638;9.876;2022-12-18T03:34:42;102798.59;;;-4.05;64.24
56400;BME280;42298;53.638;9.876;2022-12-18T03:37:09;102788.69;;;-4.05;64.19
56400;BME280;42298;53.638;9.876;2022-12-18T03:39:35;102793.88;;;-4.03;64.22
56400;BME280;42298;53.638;9.876;2022-12-18T03:42:08;102800.63;;;-3.99;64.49
56400;BME280;42298;53.638;9.876;2022-12-18T03:45:02;102800.94;;;-4.02;64.16
56400;BME280;42298;53.638;9.876;2022-12-18T03:47:38;102794.72;;;-4.03;63.91
56400;BME280;42298;53.638;9.876;2022-12-18T03:53:23;102791.16;;;-4.11;63.87
56400;BME280;42298;53.638;9.876;2022-12-18T03:55:51;102790.69;;;-4.15;63.90
56400;BME280;42298;53.638;9.876;2022-12-18T03:58:21;102802.44;;;-4.08;65.13
56400;BME280;42298;53.638;9.876;2022-12-18T04:00:49;102785.28;;;-4.15;63.89
56400;BME280;42298;53.638;9.876;2022-12-18T04:03:17;102784.94;;;-4.20;62.92
56400;BME280;42298;53.638;9.876;2022-12-18T04:05:45;102789.78;;;-4.23;63.28
56400;BME280;42298;53.638;9.876;2022-12-18T04:08:12;102794.03;;;-4.21;63.39
56400;BME280;42298;53.638;9.876;2022-12-18T04:10:38;102787.75;;;-4.29;63.03
56400;BME280;42298;53.638;9.876;2022-12-18T04:13:03;102786.06;;;-4.30;62.47
56400;BME280;42298;53.638;9.876;2022-12-18T04:15:28;102784.41;;;-4.31;63.22
56400;BME280;42298;53.638;9.876;2022-12-18T04:17:54;102783.88;;;-4.35;63.45
56400;BME280;42298;53.638;9.876;2022-12-18T04:20:20;102781.56;;;-4.30;63.09
56400;BME280;42298;53.638;9.876;2022-12-18T04:22:45;102789.63;;;-4.30;63.52
56400;BME280;42298;53.638;9.876;2022-12-18T04:25:12;102793.28;;;-4.31;62.58
56400;BME280;42298;53.638;9.876;2022-12-18T04:27:38;102790.59;;;-4.39;62.29
56400;BME280;42298;53.638;9.876;2022-12-18T04:30:04;102797.81;;;-4.39;62.42
56400;BME280;42298;53.638;9.876;2022-12-18T04:32:29;102781.47;;;-4.46;62.30
56400;BME280;42298;53.638;9.876;2022-12-18T04:34:54;102798.44;;;-4.45;62.49
56400;BME280;42298;53.638;9.876;2022-12-18T04:37:21;102782.97;;;-4.51;63.30
56400;BME280;42298;53.638;9.876;2022-12-18T04:39:47;102777.38;;;-4.58;64.10
56400;BME280;42298;53.638;9.876;2022-12-18T04:42:13;102776.88;;;-4.61;65.04
56400;BME280;42298;53.638;9.876;2022-12-18T04:44:38;102775.03;;;-4.61;64.25
56400;BME280;42298;53.638;9.876;2022-12-18T04:47:03;102774.53;;;-4.56;64.12
56400;BME280;42298;53.638;9.876;2022-12-18T04:49:28;102783.97;;;-4.52;63.78
56400;BME280;42298;53.638;9.876;2022-12-18T04:51:54;102784.47;;;-4.49;64.72
56400;BME280;42298;53.638;9.876;2022-12-18T04:54:19;102787.50;;;-4.52;64.37
56400;BME280;42298;53.638;9.876;2022-12-18T04:56:45;102775.91;;;-4.52;64.27
56400;BME280;42298;53.638;9.876;2022-12-18T04:59:10;102772.34;;;-4.61;63.77
56400;BME280;42298;53.638;9.876;2022-12-18T05:01:35;102787.16;;;-4.57;64.58
56400;BME280;42298;53.638;9.876;2022-12-18T05:04:01;102801.09;;;-4.53;64.66
56400;BME280;42298;53.638;9.876;2022-12-18T05:06:27;102800.75;;;-4.58;63.47
56400;BME280;42298;53.638;9.876;2022-12-18T05:08:52;102796.03;;;-4.64;63.32
56400;BME280;42298;53.638;9.876;2022-12-18T05:11:17;102815.03;;;-4.58;63.66
56400;BME280;42298;53.638;9.876;2022-12-18T05:13:44;102822.59;;;-4.53;64.47
56400;BME280;42298;53.638;9.876;2022-12-18T05:16:10;102819.56;;;-4.58;64.74
56400;BME280;42298;53.638;9.876;2022-12-18T05:18:35;102817.03;;;-4.60;64.96
56400;BME280;42298;53.638;9.876;2022-12-18T05:21:02;102822.28;;;-4.50;64.47
56400;BME280;42298;53.638;9.876;2022-12-18T05:23:27;102822.75;;;-4.55;64.40
56400;BME280;42298;53.638;9.876;2022-12-18T05:25:58;102831.03;;;-4.48;64.69
56400;BME280;42298;53.638;9.876;2022-12-18T05:28:26;102821.31;;;-4.49;64.61
56400;BME280;42298;53.638;9.876;2022-12-18T05:30:53;102815.94;;;-4.49;64.58
56400;BME280;42298;53.638;9.876;2022-12-18T05:33:21;102820.78;;;-4.53;64.77
56400;BME280;42298;53.638;9.876;2022-12-18T05:35:57;102821.16;;;-4.48;65.09
56400;BME280;42298;53.638;9.876;2022-12-18T05:38:26;102823.13;;;-4.50;64.06
56400;BME280;42298;53.638;9.876;2022-12-18T05:40:52;102829.00;;;-4.54;64.14
56400;BME280;42298;53.638;9.876;2022-12-18T05:43:18;102837.59;;;-4.51;64.12
56400;BME280;42298;53.638;9.876;2022-12-18T05:45:46;102824.16;;;-4.51;64.73
56400;BME280;42298;53.638;9.876;2022-12-18T05:48:14;102819.59;;;-4.50;64.84
56400;BME280;42298;53.638;9.876;2022-12-18T05:50:42;102837.13;;;-4.46;65.33
56400;BME280;42298;53.638;9.876;2022-12-18T05:53:08;102829.84;;;-4.54;64.46
56400;BME280;42298;53.638;9.876;2022-12-18T05:55:34;102847.50;;;-4.51;64.52
56400;BME280;42298;53.638;9.876;2022-12-18T05:58:00;102835.38;;;-4.55;65.76
56400;BME280;42298;53.638;9.876;2022-12-18T06:00:25;102839.75;;;-4.54;65.83
56400;BME280;42298;53.638;9.876;2022-12-18T06:02:50;102836.22;;;-4.55;65.16
56400;BME280;42298;53.638;9.876;2022-12-18T06:05:16;102850.03;;;-4.50;64.39
56400;BME280;42298;53.638;9.876;2022-12-18T06:07:41;102835.22;;;-4.54;65.48
56400;BME280;42298;53.638;9.876;2022-12-18T06:10:07;102831.38;;;-4.51;65.09
56400;BME280;42298;53.638;9.876;2022-12-18T06:12:32;102840.47;;;-4.44;65.82
56400;BME280;42298;53.638;9.876;2022-12-18T06:14:59;102846.06;;;-4.38;65.08
56400;BME280;42298;53.638;9.876;2022-12-18T06:17:28;102830.94;;;-4.39;65.56
56400;BME280;42298;53.638;9.876;2022-12-18T06:19:54;102840.34;;;-4.35;65.74
56400;BME280;42298;53.638;9.876;2022-12-18T06:22:19;102841.88;;;-4.32;65.32
56400;BME280;42298;53.638;9.876;2022-12-18T06:24:45;102846.59;;;-4.34;65.52
56400;BME280;42298;53.638;9.876;2022-12-18T06:27:10;102841.03;;;-4.33;64.93
56400;BME280;42298;53.638;9.876;2022-12-18T06:29:35;102853.63;;;-4.33;65.23
56400;BME280;42298;53.638;9.876;2022-12-18T06:32:01;102846.38;;;-4.41;64.40
56400;BME280;42298;53.638;9.876;2022-12-18T06:34:26;102850.41;;;-4.45;63.77
56400;BME280;42298;53.638;9.876;2022-12-18T06:36:51;102845.28;;;-4.56;64.16
56400;BME280;42298;53.638;9.876;2022-12-18T06:39:17;102841.41;;;-4.61;64.45
56400;BME280;42298;53.638;9.876;2022-12-18T06:41:42;102843.94;;;-4.52;65.71
56400;BME280;42298;53.638;9.876;2022-12-18T06:44:07;102840.28;;;-4.51;66.07
56400;BME280;42298;53.638;9.876;2022-12-18T06:46:33;102838.09;;;-4.47;65.80
56400;BME280;42298;53.638;9.876;2022-12-18T06:48:58;102847.34;;;-4.50;65.58
56400;BME280;42298;53.638;9.876;2022-12-18T06:51:25;102856.91;;;-4.47;65.68
56400;BME280;42298;53.638;9.876;2022-12-18T06:53:50;102851.53;;;-4.47;64.69
56400;BME280;42298;53.638;9.876;2022-12-18T06:56:16;102864.88;;;-4.38;66.91
56400;BME280;42298;53.638;9.876;2022-12-18T06:58:43;102842.00;;;-4.42;66.34
56400;BME280;42298;53.638;9.876;2022-12-18T07:01:10;102852.13;;;-4.28;66.50
56400;BME280;42298;53.638;9.876;2022-12-18T07:03:38;102857.34;;;-4.26;65.61
56400;BME280;42298;53.638;9.876;2022-12-18T07:06:04;102853.63;;;-4.33;65.08
56400;BME280;42298;53.638;9.876;2022-12-18T07:08:30;102856.31;;;-4.33;65.26
56400;BME280;42298;53.638;9.876;2022-12-18T07:10:56;102861.81;;;-4.43;65.20
56400;BME280;42298;53.638;9.876;2022-12-18T07:13:22;102867.03;;;-4.41;65.57
56400;BME280;42298;53.638;9.876;2022-12-18T07:15:47;102862.34;;;-4.39;65.61
56400;BME280;42298;53.638;9.876;2022-12-18T07:18:12;102873.47;;;-4.34;65.49
56400;BME280;42298;53.638;9.876;2022-12-18T07:20:38;102864.06;;;-4.30;66.99
56400;BME280;42298;53.638;9.876;2022-12-18T07:23:03;102878.22;;;-4.20;66.15
56400;BME280;42298;53.638;9.876;2022-12-18T07:25:33;102882.97;;;-4.14;66.04
56400;BME280;42298;53.638;9.876;2022-12-18T07:27:58;102879.13;;;-4.12;65.57
56400;BME280;42298;53.638;9.876;2022-12-18T07:30:23;102873.06;;;-4.14;65.16
56400;BME280;42298;53.638;9.876;2022-12-18T07:32:48;102873.91;;;-4.13;66.40
56400;BME280;42298;53.638;9.876;2022-12-18T07:35:14;102887.38;;;-4.05;66.41
56400;BME280;42298;53.638;9.876;2022-12-18T07:37:40;102880.63;;;-4.09;66.07
56400;BME280;42298;53.638;9.876;2022-12-18T07:40:06;102876.59;;;-4.05;66.01
56400;BME280;42298;53.638;9.876;2022-12-18T07:42:32;102885.53;;;-3.97;66.45
56400;BME280;42298;53.638;9.876;2022-12-18T07:44:59;102887.09;;;-3.86;65.86
56400;BME280;42298;53.638;9.876;2022-12-18T07:47:25;102880.56;;;-3.83;66.74
56400;BME280;42298;53.638;9.876;2022-12-18T07:49:53;102887.13;;;-3.78;66.22
56400;BME280;42298;53.638;9.876;2022-12-18T07:52:18;102891.16;;;-3.74;66.27
56400;BME280;42298;53.638;9.876;2022-12-18T07:54:45;102885.66;;;-3.64;66.05
56400;BME280;42298;53.638;9.876;2022-12-18T07:57:10;102896.13;;;-3.53;67.14
56400;BME280;42298;53.638;9.876;2022-12-18T07:59:36;102911.78;;;-3.49;66.04
56400;BME280;42298;53.638;9.876;2022-12-18T08:02:01;102896.13;;;-3.45;66.47
56400;BME280;42298;53.638;9.876;2022-12-18T08:04:26;102895.47;;;-3.39;65.98
56400;BME280;42298;53.638;9.876;2022-12-18T08:06:52;102895.47;;;-3.39;65.15
56400;BME280;42298;53.638;9.876;2022-12-18T08:09:17;102901.03;;;-3.33;65.33
56400;BME280;42298;53.638;9.876;2022-12-18T08:11:43;102901.56;;;-3.29;65.02
56400;BME280;42298;53.638;9.876;2022-12-18T08:14:08;102895.50;;;-3.23;65.20
56400;BME280;42298;53.638;9.876;2022-12-18T08:16:35;102886.41;;;-3.14;65.74
56400;BME280;42298;53.638;9.876;2022-12-18T08:19:00;102875.13;;;-3.18;64.89
56400;BME280;42298;53.638;9.876;2022-12-18T08:21:29;102885.06;;;-3.10;64.73
56400;BME280;42298;53.638;9.876;2022-12-18T08:23:56;102868.69;;;-3.17;65.70
56400;BME280;42298;53.638;9.876;2022-12-18T08:26:23;102870.06;;;-3.13;65.19
56400;BME280;42298;53.638;9.876;2022-12-18T08:28:50;102879.97;;;-3.05;65.92
56400;BME280;42298;53.638;9.876;2022-12-18T08:31:15;102875.78;;;-3.00;66.12
56400;BME280;42298;53.638;9.876;2022-12-18T08:33:41;102876.09;;;-2.95;65.57
56400;BME280;42298;53.638;9.876;2022-12-18T08:36:08;102876.28;;;-2.80;65.66
56400;BME280;42298;53.638;9.876;2022-12-18T08:38:34;102869.69;;;-2.78;65.23
56400;BME280;42298;53.638;9.876;2022-12-18T08:41:05;102877.91;;;-2.55;65.16
56400;BME280;42298;53.638;9.876;2022-12-18T08:43:30;102884.28;;;-2.40;65.19
56400;BME280;42298;53.638;9.876;2022-12-18T08:46:19;102889.63;;;-2.24;65.75
56400;BME280;42298;53.638;9.876;2022-12-18T08:48:45;102887.44;;;-2.21;65.40
56400;BME280;42298;53.638;9.876;2022-12-18T08:51:10;102886.03;;;-2.09;65.50
56400;BME280;42298;53.638;9.876;2022-12-18T08:53:36;102889.69;;;-1.93;64.79
56400;BME280;42298;53.638;9.876;2022-12-18T08:56:02;102871.06;;;-1.88;65.17
56400;BME280;42298;53.638;9.876;2022-12-18T08:58:28;102882.47;;;-1.70;64.66
56400;BME280;42298;53.638;9.876;2022-12-18T09:00:59;102885.00;;;-1.46;64.86
56400;BME280;42298;53.638;9.876;2022-12-18T09:03:25;102889.69;;;-1.40;64.09
56400;BME280;42298;53.638;9.876;2022-12-18T09:05:50;102892.53;;;-1.34;64.05
56400;BME280;42298;53.638;9.876;2022-12-18T09:08:15;102892.31;;;-1.24;64.05
56400;BME280;42298;53.638;9.876;2022-12-18T09:10:45;102896.47;;;-1.14;63.99
56400;BME280;42298;53.638;9.876;2022-12-18T09:13:11;102896.19;;;-1.04;64.50
56400;BME280;42298;53.638;9.876;2022-12-18T09:15:55;102879.47;;;-0.85;63.72
56400;BME280;42298;53.638;9.876;2022-12-18T09:18:22;102878.47;;;-0.84;63.33
56400;BME280;42298;53.638;9.876;2022-12-18T09:20:47;102883.63;;;-0.60;62.82
56400;BME280;42298;53.638;9.876;2022-12-18T09:23:13;102882.16;;;-0.48;63.10
56400;BME280;42298;53.638;9.876;2022-12-18T09:25:39;102885.63;;;-0.40;62.58
56400;BME280;42298;53.638;9.876;2022-12-18T09:28:16;102895.97;;;-0.14;62.70
56400;BME280;42298;53.638;9.876;2022-12-18T09:30:44;102890.38;;;-0.13;61.56
56400;BME280;42298;53.638;9.876;2022-12-18T09:33:10;102876.75;;;-0.34;61.92
56400;BME280;42298;53.638;9.876;2022-12-18T09:35:40;102890.84;;;-0.24;61.23
56400;BME280;42298;53.638;9.876;2022-12-18T09:38:07;102899.06;;;-0.17;61.51
56400;BME280;42298;53.638;9.876;2022-12-18T09:40:41;102889.13;;;0.04;62.26
56400;BME280;42298;53.638;9.876;2022-12-18T09:43:17;102894.75;;;0.18;60.52
56400;BME280;42298;53.638;9.876;2022-12-18T09:45:51;102891.47;;;0.22;60.83
56400;BME280;42298;53.638;9.876;2022-12-18T09:48:23;102895.19;;;0.36;60.70
56400;BME280;42298;53.638;9.876;2022-12-18T09:50:50;102902.94;;;0.39;60.28
56400;BME280;42298;53.638;9.876;2022-12-18T09:53:22;102887.25;;;0.34;59.75
56400;BME280;42298;53.638;9.876;2022-12-18T09:55:50;102891.53;;;0.43;60.65
56400;BME280;42298;53.638;9.876;2022-12-18T09:58:39;102890.00;;;0.55;59.66
56400;BME280;42298;53.638;9.876;2022-12-18T10:01:12;102902.13;;;0.59;59.83
56400;BME280;42298;53.638;9.876;2022-12-18T10:03:39;102891.94;;;0.61;59.92
56400;BME280;42298;53.638;9.876;2022-12-18T10:06:14;102894.31;;;0.71;60.06
56400;BME280;42298;53.638;9.876;2022-12-18T10:11:45;102898.66;;;0.86;59.39
56400;BME280;42298;53.638;9.876;2022-12-18T10:17:03;102902.00;;;0.67;58.80
56400;BME280;42298;53.638;9.876;2022-12-18T10:19:35;102902.91;;;0.74;59.22
56400;BME280;42298;53.638;9.876;2022-12-18T10:27:22;102903.69;;;0.68;59.08
56400;BME280;42298;53.638;9.876;2022-12-18T10:29:48;102913.94;;;0.73;58.92
56400;BME280;42298;53.638;9.876;2022-12-18T10:32:25;102897.28;;;0.76;59.57
56400;BME280;42298;53.638;9.876;2022-12-18T10:34:53;102906.13;;;0.84;59.03
56400;BME280;42298;53.638;9.876;2022-12-18T10:37:23;102902.72;;;0.76;59.04
56400;BME280;42298;53.638;9.876;2022-12-18T10:40:15;102917.25;;;0.89;58.92
56400;BME280;42298;53.638;9.876;2022-12-18T10:42:41;102904.28;;;0.85;59.10
56400;BME280;42298;53.638;9.876;2022-12-18T10:45:16;102910.41;;;0.93;59.13
56400;BME280;42298;53.638;9.876;2022-12-18T10:47:46;102900.97;;;0.89;59.22
56400;BME280;42298;53.638;9.876;2022-12-18T10:50:24;102898.38;;;1.02;58.19
56400;BME280;42298;53.638;9.876;2022-12-18T10:53:01;102891.13;;;1.09;58.68
56400;BME280;42298;53.638;9.876;2022-12-18T10:55:32;102881.81;;;1.18;58.41
56400;BME280;42298;53.638;9.876;2022-12-18T11:00:38;102876.06;;;1.28;58.53
56400;BME280;42298;53.638;9.876;2022-12-18T11:03:31;102884.47;;;1.33;58.12
56400;BME280;42298;53.638;9.876;2022-12-18T11:06:06;102870.19;;;1.24;58.05
56400;BME280;42298;53.638;9.876;2022-12-18T11:08:32;102876.16;;;1.13;58.11
56400;BME280;42298;53.638;9.876;2022-12-18T11:10:57;102867.31;;;1.05;58.49
56400;BME280;42298;53.638;9.876;2022-12-18T11:13:24;102866.09;;;1.07;58.92
56400;BME280;42298;53.638;9.876;2022-12-18T11:15:51;102867.09;;;1.06;58.64
56400;BME280;42298;53.638;9.876;2022-12-18T11:18:27;102888.03;;;1.12;58.74
56400;BME280;42298;53.638;9.876;2022-12-18T11:21:05;102880.69;;;1.06;58.33
56400;BME280;42298;53.638;9.876;2022-12-18T11:23:33;102880.09;;;1.11;58.75
56400;BME280;42298;53.638;9.876;2022-12-18T11:26:01;102881.44;;;1.21;58.79
56400;BME280;42298;53.638;9.876;2022-12-18T11:31:31;102866.19;;;1.20;58.06
56400;BME280;42298;53.638;9.876;2022-12-18T11:36:46;102875.41;;;1.26;57.78
56400;BME280;42298;53.638;9.876;2022-12-18T11:39:52;102867.06;;;1.27;58.15
56400;BME280;42298;53.638;9.876;2022-12-18T11:42:25;102877.94;;;1.27;58.20
56400;BME280;42298;53.638;9.876;2022-12-18T11:44:59;102855.59;;;1.25;58.01
56400;BME280;42298;53.638;9.876;2022-12-18T11:47:32;102869.25;;;1.38;58.17
56400;BME280;42298;53.638;9.876;2022-12-18T11:50:02;102848.56;;;1.10;58.15
56400;BME280;42298;53.638;9.876;2022-12-18T11:52:34;102861.63;;;1.21;58.74
56400;BME280;42298;53.638;9.876;2022-12-18T11:55:12;102851.56;;;1.21;58.10
56400;BME280;42298;53.638;9.876;2022-12-18T12:00:19;102835.94;;;1.23;58.80
56400;BME280;42298;53.638;9.876;2022-12-18T12:03:22;102833.09;;;1.31;58.39
56400;BME280;42298;53.638;9.876;2022-12-18T12:06:01;102825.00;;;1.10;58.66
56400;BME280;42298;53.638;9.876;2022-12-18T12:11:38;102815.03;;;1.17;58.95
56400;BME280;42298;53.638;9.876;2022-12-18T12:14:43;102817.25;;;1.07;58.70
56400;BME280;42298;53.638;9.876;2022-12-18T12:17:36;102821.44;;;1.10;59.08
56400;BME280;42298;53.638;9.876;2022-12-18T12:22:58;102811.84;;;1.07;59.29
56400;BME280;42298;53.638;9.876;2022-12-18T12:25:42;102801.84;;;1.14;58.86
56400;BME280;42298;53.638;9.876;2022-12-18T12:31:17;102779.28;;;1.07;59.22
56400;BME280;42298;53.638;9.876;2022-12-18T12:38:55;102769.28;;;1.14;59.53
56400;BME280;42298;53.638;9.876;2022-12-18T12:41:25;102760.59;;;1.25;58.84
56400;BME280;42298;53.638;9.876;2022-12-18T12:44:19;102746.63;;;1.28;58.18
56400;BME280;42298;53.638;9.876;2022-12-18T12:46:48;102751.03;;;1.29;58.85
56400;BME280;42298;53.638;9.876;2022-12-18T12:49:18;102743.53;;;1.31;58.74
56400;BME280;42298;53.638;9.876;2022-12-18T12:51:54;102738.50;;;1.28;57.83
56400;BME280;42298;53.638;9.876;2022-12-18T12:54:24;102741.88;;;1.37;58.53
56400;BME280;42298;53.638;9.876;2022-12-18T12:57:12;102748.22;;;1.50;58.89
56400;BME280;42298;53.638;9.876;2022-12-18T13:00:06;102748.84;;;1.52;58.34
56400;BME280;42298;53.638;9.876;2022-12-18T13:02:42;102742.78;;;1.50;58.48
56400;BME280;42298;53.638;9.876;2022-12-18T13:13:07;102744.34;;;1.72;57.97
56400;BME280;42298;53.638;9.876;2022-12-18T13:15:45;102733.66;;;1.64;57.09
56400;BME280;42298;53.638;9.876;2022-12-18T13:18:15;102749.97;;;1.64;58.31
56400;BME280;42298;53.638;9.876;2022-12-18T13:21:08;102744.75;;;1.69;57.99
56400;BME280;42298;53.638;9.876;2022-12-18T13:23:38;102739.09;;;1.71;57.01
56400;BME280;42298;53.638;9.876;2022-12-18T13:31:11;102722.28;;;1.41;57.36
56400;BME280;42298;53.638;9.876;2022-12-18T13:34:09;102723.13;;;1.48;57.53
56400;BME280;42298;53.638;9.876;2022-12-18T13:36:38;102705.94;;;1.35;57.70
56400;BME280;42298;53.638;9.876;2022-12-18T13:41:36;102712.78;;;1.24;57.17
56400;BME280;42298;53.638;9.876;2022-12-18T13:44:17;102723.63;;;1.24;57.03
56400;BME280;42298;53.638;9.876;2022-12-18T13:46:48;102727.19;;;1.25;57.10
56400;BME280;42298;53.638;9.876;2022-12-18T13:49:25;102725.88;;;1.14;57.82
56400;BME280;42298;53.638;9.876;2022-12-18T13:51:55;102737.31;;;1.10;57.27
56400;BME280;42298;53.638;9.876;2022-12-18T13:56:52;102741.91;;;1.09;57.58
56400;BME280;42298;53.638;9.876;2022-12-18T13:59:21;102741.88;;;1.03;57.65
56400;BME280;42298;53.638;9.876;2022-12-18T14:01:55;102733.75;;;1.03;57.51
56400;BME280;42298;53.638;9.876;2022-12-18T14:04:25;102725.72;;;0.88;57.15
56400;BME280;42298;53.638;9.876;2022-12-18T14:07:05;102711.31;;;0.88;58.27
56400;BME280;42298;53.638;9.876;2022-12-18T14:09:36;102723.41;;;0.85;57.95
56400;BME280;42298;53.638;9.876;2022-12-18T14:12:03;102711.81;;;0.70;58.29
56400;BME280;42298;53.638;9.876;2022-12-18T14:14:48;102717.44;;;0.69;58.26
56400;BME280;42298;53.638;9.876;2022-12-18T14:17:16;102724.25;;;0.65;58.34
56400;BME280;42298;53.638;9.876;2022-12-18T14:19:47;102713.81;;;0.62;58.48